Time;durP1;ratioP1;P1;durP2;ratioP2;P2;SDS_P1;SDS_P2;PMS_P1;PMS_P2;Temp;Humidity;BMP_temperature;BMP_pressure;BME280_temperature;BME280_humidity;BME280_pressure;Samples;Min_cycle;Max_cycle;Signal;HPM_P1;HPM_P2
2024/01/04 00:01:22;;;;;;;7.38;1.33;;;;;;;;;;5094189;28;20036;-67
2024/01/04 00:03:48;;;;;;;11.45;1.50;;;;;;;;;;5094815;28;20123;-67
2024/01/04 00:06:14;;;;;;;6.57;1.20;;;;;;;;;;5071524;28;20107;-68
2024/01/04 00:08:39;;;;;;;11.88;1.15;;;;;;;;;;5091372;28;20127;-67
2024/01/04 00:11:06;;;;;;;7.55;1.15;;;;;;;;;;5099962;28;20388;-67
2024/01/04 00:13:32;;;;;;;2.60;1.05;;;;;;;;;;5091052;28;20039;-67
2024/01/04 00:15:57;;;;;;;3.17;1.10;;;;;;;;;;5092304;28;20569;-67
2024/01/04 00:18:22;;;;;;;7.78;1.35;;;;;;;;;;5092121;28;20028;-67
2024/01/04 00:20:48;;;;;;;4.70;0.90;;;;;;;;;;5092567;28;20040;-67
2024/01/04 00:23:13;;;;;;;5.80;0.98;;;;;;;;;;5092052;28;20040;-67
2024/01/04 00:25:38;;;;;;;9.00;1.20;;;;;;;;;;5091941;28;20156;-67
2024/01/04 00:28:04;;;;;;;8.40;1.55;;;;;;;;;;5092172;28;20105;-67
2024/01/04 00:30:29;;;;;;;3.90;1.05;;;;;;;;;;5091602;28;20535;-67
2024/01/04 00:32:55;;;;;;;1.95;0.82;;;;;;;;;;5091827;28;20114;-67
2024/01/04 00:35:20;;;;;;;5.13;0.80;;;;;;;;;;5091927;28;20112;-68
2024/01/04 00:37:46;;;;;;;1.50;0.68;;;;;;;;;;5091704;28;20129;-67
2024/01/04 00:40:12;;;;;;;5.43;0.70;;;;;;;;;;5088787;28;20084;-68
2024/01/04 00:42:37;;;;;;;3.78;0.90;;;;;;;;;;5072663;28;20096;-68
2024/01/04 00:45:04;;;;;;;3.15;0.80;;;;;;;;;;5073664;28;20450;-67
2024/01/04 00:47:29;;;;;;;10.95;0.85;;;;;;;;;;5091008;28;20425;-68
2024/01/04 00:49:54;;;;;;;7.47;1.13;;;;;;;;;;5091375;28;20113;-68
2024/01/04 00:52:19;;;;;;;7.88;1.13;;;;;;;;;;5095528;28;20652;-68
2024/01/04 00:54:45;;;;;;;5.05;0.80;;;;;;;;;;5091169;28;20063;-67
2024/01/04 00:57:10;;;;;;;4.53;0.98;;;;;;;;;;5093654;28;20122;-67
2024/01/04 00:59:35;;;;;;;7.10;1.00;;;;;;;;;;5091350;28;20137;-68
2024/01/04 01:02:01;;;;;;;4.10;0.82;;;;;;;;;;5091128;28;20062;-67
2024/01/04 01:04:26;;;;;;;6.75;0.90;;;;;;;;;;5090566;28;20533;-68
2024/01/04 01:06:52;;;;;;;9.18;1.15;;;;;;;;;;5091253;28;20468;-67
2024/01/04 01:09:17;;;;;;;7.95;1.05;;;;;;;;;;5090729;28;20074;-67
2024/01/04 01:11:42;;;;;;;16.88;1.65;;;;;;;;;;5091499;28;20043;-67
2024/01/04 01:14:08;;;;;;;15.52;1.60;;;;;;;;;;5073305;28;20032;-67
2024/01/04 01:16:34;;;;;;;16.02;1.40;;;;;;;;;;5090809;28;20429;-68
2024/01/04 01:18:59;;;;;;;5.10;0.90;;;;;;;;;;5090995;28;20044;-67
2024/01/04 01:21:25;;;;;;;12.07;1.40;;;;;;;;;;5090812;28;20058;-67
2024/01/04 01:23:50;;;;;;;8.30;1.20;;;;;;;;;;5090559;28;20575;-67
2024/01/04 01:26:15;;;;;;;6.22;0.85;;;;;;;;;;5090762;28;20140;-67
2024/01/04 01:28:41;;;;;;;7.97;0.90;;;;;;;;;;5082116;28;20092;-67
2024/01/04 01:31:06;;;;;;;12.02;1.30;;;;;;;;;;5091181;28;20036;-67
2024/01/04 01:33:31;;;;;;;5.05;0.98;;;;;;;;;;5072518;28;20039;-67
2024/01/04 01:35:57;;;;;;;7.15;0.80;;;;;;;;;;5090885;28;20368;-67
2024/01/04 01:38:23;;;;;;;8.60;1.00;;;;;;;;;;5090234;28;20564;-68
2024/01/04 01:40:48;;;;;;;13.93;1.83;;;;;;;;;;5090468;28;20040;-67
2024/01/04 01:43:14;;;;;;;7.55;1.23;;;;;;;;;;5090930;28;20048;-66
2024/01/04 01:45:39;;;;;;;12.45;1.20;;;;;;;;;;5090564;28;20043;-66
2024/01/04 01:48:05;;;;;;;4.95;0.90;;;;;;;;;;5090635;28;20495;-67
2024/01/04 01:50:31;;;;;;;13.07;1.13;;;;;;;;;;5072776;28;20020;-67
2024/01/04 01:52:56;;;;;;;6.00;1.17;;;;;;;;;;5090326;28;20040;-66
2024/01/04 01:55:22;;;;;;;15.65;1.00;;;;;;;;;;5090175;28;20032;-67
2024/01/04 01:57:47;;;;;;;16.70;1.38;;;;;;;;;;5089937;28;20036;-68
2024/01/04 02:00:14;;;;;;;10.45;1.40;;;;;;;;;;5072437;28;20312;-67
2024/01/04 02:02:39;;;;;;;9.50;1.40;;;;;;;;;;5090265;28;20040;-67
2024/01/04 02:05:06;;;;;;;6.60;1.35;;;;;;;;;;5074380;28;20044;-67
2024/01/04 02:07:32;;;;;;;12.43;1.83;;;;;;;;;;5083399;28;20035;-67
2024/01/04 02:09:57;;;;;;;3.03;1.17;;;;;;;;;;5089988;28;20044;-66
2024/01/04 02:12:23;;;;;;;16.65;1.60;;;;;;;;;;5090255;28;20458;-67
2024/01/04 02:14:54;;;;;;;8.85;1.05;;;;;;;;;;5090182;28;20047;-66
2024/01/04 02:17:20;;;;;;;7.50;1.25;;;;;;;;;;5084943;28;20094;-67
2024/01/04 02:19:46;;;;;;;10.98;1.35;;;;;;;;;;5071886;28;20048;-67
2024/01/04 02:22:12;;;;;;;7.00;1.15;;;;;;;;;;5087270;28;20127;-67
2024/01/04 02:24:37;;;;;;;3.97;1.45;;;;;;;;;;5089859;28;20040;-67
2024/01/04 02:27:03;;;;;;;5.22;1.00;;;;;;;;;;5090335;28;20063;-67
2024/01/04 02:29:28;;;;;;;10.15;1.10;;;;;;;;;;5089858;28;20036;-67
2024/01/04 02:31:53;;;;;;;6.85;1.45;;;;;;;;;;5089751;28;20462;-66
2024/01/04 02:34:19;;;;;;;6.50;1.30;;;;;;;;;;5089786;28;20067;-67
2024/01/04 02:36:44;;;;;;;5.88;1.50;;;;;;;;;;5090224;28;20036;-67
2024/01/04 02:39:10;;;;;;;6.90;1.30;;;;;;;;;;5070607;28;20036;-66
2024/01/04 02:41:35;;;;;;;11.38;1.20;;;;;;;;;;5087634;28;20040;-67
2024/01/04 02:44:00;;;;;;;4.93;0.90;;;;;;;;;;5087212;28;20147;-67
2024/01/04 02:46:26;;;;;;;8.88;1.77;;;;;;;;;;5086212;28;20040;-67
2024/01/04 02:48:51;;;;;;;4.15;0.88;;;;;;;;;;5089456;28;20043;-67
2024/01/04 02:51:17;;;;;;;23.73;1.73;;;;;;;;;;5090167;28;20120;-68
2024/01/04 02:53:42;;;;;;;3.38;0.70;;;;;;;;;;5087494;28;20044;-68
2024/01/04 02:56:07;;;;;;;7.55;1.10;;;;;;;;;;5089918;28;20080;-67
2024/01/04 02:58:33;;;;;;;13.02;1.73;;;;;;;;;;5085573;28;20036;-67
2024/01/04 03:00:58;;;;;;;7.45;1.15;;;;;;;;;;5071840;28;20042;-67
2024/01/04 03:03:23;;;;;;;14.05;1.73;;;;;;;;;;5087474;28;20033;-68
2024/01/04 03:05:49;;;;;;;8.25;1.73;;;;;;;;;;5089243;28;20024;-68
2024/01/04 03:08:14;;;;;;;11.90;1.50;;;;;;;;;;5090029;28;20368;-67
2024/01/04 03:10:39;;;;;;;8.52;1.15;;;;;;;;;;5089386;28;20384;-67
2024/01/04 03:13:06;;;;;;;8.75;1.70;;;;;;;;;;5089872;28;20085;-67
2024/01/04 03:15:31;;;;;;;11.90;2.15;;;;;;;;;;5089665;28;20093;-67
2024/01/04 03:17:57;;;;;;;6.85;1.23;;;;;;;;;;5089340;28;20434;-67
2024/01/04 03:20:22;;;;;;;11.32;1.83;;;;;;;;;;5071513;28;20552;-67
2024/01/04 03:22:47;;;;;;;9.27;1.20;;;;;;;;;;5089558;28;20101;-67
2024/01/04 03:25:13;;;;;;;7.88;1.42;;;;;;;;;;5089154;28;20031;-66
2024/01/04 03:27:38;;;;;;;5.25;1.15;;;;;;;;;;5090110;28;20089;-67
2024/01/04 03:30:05;;;;;;;11.40;1.42;;;;;;;;;;5092546;28;20403;-67
2024/01/04 03:32:30;;;;;;;18.20;1.63;;;;;;;;;;5074109;28;20093;-67
2024/01/04 03:34:56;;;;;;;20.30;1.75;;;;;;;;;;5092750;28;20028;-67
2024/01/04 03:37:21;;;;;;;11.82;1.20;;;;;;;;;;5093220;28;20042;-67
2024/01/04 03:39:46;;;;;;;16.70;1.77;;;;;;;;;;5092897;28;20123;-66
2024/01/04 03:42:12;;;;;;;10.30;1.30;;;;;;;;;;5087212;28;20128;-67
2024/01/04 03:44:37;;;;;;;7.40;1.33;;;;;;;;;;5089050;28;20047;-67
2024/01/04 03:47:04;;;;;;;11.00;1.55;;;;;;;;;;5093121;28;20098;-67
2024/01/04 03:49:31;;;;;;;9.23;1.77;;;;;;;;;;5092652;28;20088;-67
2024/01/04 03:51:56;;;;;;;15.30;1.80;;;;;;;;;;5087877;28;20663;-66
2024/01/04 03:54:22;;;;;;;10.63;1.60;;;;;;;;;;5092540;28;20048;-67
2024/01/04 03:56:47;;;;;;;12.80;1.40;;;;;;;;;;5092830;28;20032;-66
2024/01/04 03:59:12;;;;;;;8.70;1.33;;;;;;;;;;5092832;28;20055;-66
2024/01/04 04:01:48;;;;;;;10.13;1.42;;;;;;;;;;5093030;28;20043;-68
2024/01/04 04:04:14;;;;;;;6.80;1.08;;;;;;;;;;5074641;28;20028;-66
2024/01/04 04:06:39;;;;;;;13.25;1.48;;;;;;;;;;5092326;28;20595;-66
2024/01/04 04:09:06;;;;;;;12.30;1.45;;;;;;;;;;5092117;28;20028;-67
2024/01/04 04:11:32;;;;;;;14.10;2.03;;;;;;;;;;5092513;28;20034;-67
2024/01/04 04:13:57;;;;;;;18.92;1.95;;;;;;;;;;5092799;28;20387;-67
2024/01/04 04:16:23;;;;;;;23.15;1.85;;;;;;;;;;5092664;28;20040;-67
2024/01/04 04:18:48;;;;;;;17.58;1.83;;;;;;;;;;5092015;28;20109;-67
2024/01/04 04:21:24;;;;;;;11.88;1.52;;;;;;;;;;5092073;28;20044;-67
2024/01/04 04:23:50;;;;;;;21.65;2.30;;;;;;;;;;5091923;28;20039;-67
2024/01/04 04:26:19;;;;;;;13.63;1.20;;;;;;;;;;5092345;28;20083;-67
2024/01/04 04:28:44;;;;;;;16.75;1.50;;;;;;;;;;5091957;28;20024;-66
2024/01/04 04:31:13;;;;;;;7.63;1.42;;;;;;;;;;5092317;28;20141;-68
2024/01/04 04:33:39;;;;;;;20.52;2.20;;;;;;;;;;5091866;28;20047;-67
2024/01/04 04:36:05;;;;;;;16.00;1.67;;;;;;;;;;5091957;28;20046;-67
2024/01/04 04:38:30;;;;;;;8.45;1.60;;;;;;;;;;5091798;28;20472;-66
2024/01/04 04:40:57;;;;;;;8.60;1.50;;;;;;;;;;5090647;28;20630;-67
2024/01/04 04:43:22;;;;;;;19.65;1.58;;;;;;;;;;5091921;28;20144;-67
2024/01/04 04:45:47;;;;;;;9.98;1.20;;;;;;;;;;5092156;28;20056;-67
2024/01/04 04:48:13;;;;;;;17.88;1.88;;;;;;;;;;5091677;28;20036;-67
2024/01/04 04:50:38;;;;;;;14.73;1.65;;;;;;;;;;5090946;28;20085;-67
2024/01/04 04:53:03;;;;;;;16.20;2.30;;;;;;;;;;5091699;28;20035;-67
2024/01/04 04:55:29;;;;;;;19.58;2.17;;;;;;;;;;5091485;28;20047;-67
2024/01/04 04:57:54;;;;;;;18.33;2.00;;;;;;;;;;5091545;28;20036;-67
2024/01/04 05:00:19;;;;;;;15.70;1.80;;;;;;;;;;5090980;28;20089;-67
2024/01/04 05:02:45;;;;;;;5.40;1.75;;;;;;;;;;5091243;28;20154;-67
2024/01/04 05:05:10;;;;;;;24.13;3.15;;;;;;;;;;5088878;28;20078;-67
2024/01/04 05:07:35;;;;;;;19.65;2.63;;;;;;;;;;5091584;28;20043;-67
2024/01/04 05:10:01;;;;;;;12.20;1.85;;;;;;;;;;5090598;28;20101;-68
2024/01/04 05:12:31;;;;;;;17.98;3.35;;;;;;;;;;5091699;28;20043;-67
2024/01/04 05:14:57;;;;;;;13.65;1.42;;;;;;;;;;5089859;28;20032;-66
2024/01/04 05:17:22;;;;;;;12.75;1.42;;;;;;;;;;5091120;28;20031;-66
2024/01/04 05:19:47;;;;;;;12.00;1.45;;;;;;;;;;5090677;28;20086;-67
2024/01/04 05:22:13;;;;;;;11.43;1.45;;;;;;;;;;5090945;28;20081;-67
2024/01/04 05:24:38;;;;;;;11.48;1.52;;;;;;;;;;5090836;28;20098;-67
2024/01/04 05:27:03;;;;;;;9.32;1.25;;;;;;;;;;5090908;28;20082;-66
2024/01/04 05:29:29;;;;;;;7.50;1.40;;;;;;;;;;5090637;28;20587;-67
2024/01/04 05:31:54;;;;;;;8.15;1.17;;;;;;;;;;5090991;28;20039;-67
2024/01/04 05:34:19;;;;;;;9.90;2.00;;;;;;;;;;5087747;28;20095;-66
2024/01/04 05:36:46;;;;;;;13.35;1.75;;;;;;;;;;5091090;28;20039;-67
2024/01/04 05:39:11;;;;;;;16.83;1.95;;;;;;;;;;5090421;28;20404;-67
2024/01/04 05:41:36;;;;;;;10.75;1.30;;;;;;;;;;5090318;28;20073;-67
2024/01/04 05:44:03;;;;;;;10.85;1.10;;;;;;;;;;5090632;28;20048;-66
2024/01/04 05:46:28;;;;;;;12.30;1.65;;;;;;;;;;5091020;28;20048;-66
2024/01/04 05:48:54;;;;;;;8.23;0.63;;;;;;;;;;5090117;28;20028;-66
2024/01/04 05:51:19;;;;;;;9.52;1.05;;;;;;;;;;5090850;28;20036;-67
2024/01/04 05:53:45;;;;;;;14.02;1.20;;;;;;;;;;5083712;28;20132;-67
2024/01/04 05:56:10;;;;;;;9.00;1.27;;;;;;;;;;5090600;28;20028;-66
2024/01/04 05:58:35;;;;;;;6.43;1.10;;;;;;;;;;5072423;28;20478;-67
2024/01/04 06:01:01;;;;;;;15.70;1.40;;;;;;;;;;5090317;28;20545;-67
2024/01/04 06:03:26;;;;;;;24.10;2.03;;;;;;;;;;5090221;28;20024;-67
2024/01/04 06:05:51;;;;;;;9.13;1.00;;;;;;;;;;5089982;28;20051;-66
2024/01/04 06:08:17;;;;;;;13.52;1.58;;;;;;;;;;5090549;28;20116;-66
2024/01/04 06:10:42;;;;;;;12.18;1.25;;;;;;;;;;5089744;28;20034;-66
2024/01/04 06:13:08;;;;;;;21.88;1.45;;;;;;;;;;5090442;28;20036;-66
2024/01/04 06:15:34;;;;;;;11.43;0.90;;;;;;;;;;5089879;28;20109;-67
2024/01/04 06:17:59;;;;;;;8.82;1.13;;;;;;;;;;5089368;28;20031;-67
2024/01/04 06:20:25;;;;;;;3.30;1.05;;;;;;;;;;5090211;28;20396;-66
2024/01/04 06:22:51;;;;;;;7.55;1.83;;;;;;;;;;5089618;28;20040;-67
2024/01/04 06:25:16;;;;;;;18.10;1.30;;;;;;;;;;5071816;28;20024;-67
2024/01/04 06:27:41;;;;;;;17.95;1.20;;;;;;;;;;5090136;28;20035;-66
2024/01/04 06:30:07;;;;;;;12.82;1.20;;;;;;;;;;5090144;28;20056;-66
2024/01/04 06:32:33;;;;;;;15.13;1.48;;;;;;;;;;5089990;28;20532;-67
2024/01/04 06:34:58;;;;;;;7.68;1.52;;;;;;;;;;5089864;28;20040;-67
2024/01/04 06:37:23;;;;;;;29.40;2.42;;;;;;;;;;5089986;28;20115;-67
2024/01/04 06:39:50;;;;;;;14.02;1.17;;;;;;;;;;5089779;28;20040;-67
2024/01/04 06:42:16;;;;;;;18.58;1.33;;;;;;;;;;5090009;28;20035;-66
2024/01/04 06:44:41;;;;;;;13.70;1.35;;;;;;;;;;5076196;28;20083;-66
2024/01/04 06:47:07;;;;;;;18.08;1.77;;;;;;;;;;5089849;28;20507;-67
2024/01/04 06:49:32;;;;;;;10.57;1.27;;;;;;;;;;5089729;28;20069;-66
2024/01/04 06:51:57;;;;;;;6.97;1.10;;;;;;;;;;5089928;28;20069;-66
2024/01/04 06:54:22;;;;;;;5.18;1.15;;;;;;;;;;5089617;28;20073;-66
2024/01/04 06:56:48;;;;;;;17.38;1.73;;;;;;;;;;5089938;28;20486;-66
2024/01/04 06:59:14;;;;;;;13.75;2.20;;;;;;;;;;5089312;28;20044;-67
2024/01/04 07:01:40;;;;;;;5.72;1.10;;;;;;;;;;5089980;28;20483;-66
2024/01/04 07:04:05;;;;;;;6.90;1.80;;;;;;;;;;5092144;28;20036;-66
2024/01/04 07:06:30;;;;;;;6.22;1.00;;;;;;;;;;5093565;28;20044;-66
2024/01/04 07:08:55;;;;;;;9.98;1.40;;;;;;;;;;5093219;28;20058;-66
2024/01/04 07:11:21;;;;;;;25.58;1.95;;;;;;;;;;5093590;28;20036;-66
2024/01/04 07:13:46;;;;;;;10.23;1.33;;;;;;;;;;5085861;28;20390;-66
2024/01/04 07:16:11;;;;;;;14.35;1.73;;;;;;;;;;5086226;28;20448;-66
2024/01/04 07:18:37;;;;;;;7.47;1.00;;;;;;;;;;5091474;28;20708;-67
2024/01/04 07:21:03;;;;;;;15.48;1.50;;;;;;;;;;5093065;28;20119;-66
2024/01/04 07:23:28;;;;;;;5.63;1.35;;;;;;;;;;5093122;28;20048;-67
2024/01/04 07:25:55;;;;;;;9.20;0.98;;;;;;;;;;5093070;28;20040;-67
2024/01/04 07:28:20;;;;;;;8.05;1.13;;;;;;;;;;5093363;28;20483;-67
2024/01/04 07:30:46;;;;;;;13.43;1.67;;;;;;;;;;5089997;28;20088;-66
2024/01/04 07:33:12;;;;;;;13.05;1.20;;;;;;;;;;5093214;28;20625;-66
2024/01/04 07:35:38;;;;;;;6.32;0.82;;;;;;;;;;5092431;28;20042;-66
2024/01/04 07:38:03;;;;;;;19.08;1.75;;;;;;;;;;5093172;28;20526;-66
2024/01/04 07:40:29;;;;;;;23.52;1.98;;;;;;;;;;5092939;28;20498;-67
2024/01/04 07:42:54;;;;;;;9.88;1.77;;;;;;;;;;5087726;28;20569;-66
2024/01/04 07:45:19;;;;;;;5.53;1.20;;;;;;;;;;5092192;28;20519;-68
2024/01/04 07:47:45;;;;;;;16.88;1.80;;;;;;;;;;5087759;28;20082;-67
2024/01/04 07:50:11;;;;;;;9.77;1.13;;;;;;;;;;5092537;28;20032;-68
2024/01/04 07:52:38;;;;;;;10.65;1.02;;;;;;;;;;5076039;28;20032;-66
2024/01/04 07:55:03;;;;;;;8.10;1.63;;;;;;;;;;5092000;28;20073;-66
2024/01/04 07:57:29;;;;;;;14.00;1.40;;;;;;;;;;5092767;28;20039;-67
2024/01/04 07:59:54;;;;;;;2.80;1.05;;;;;;;;;;5092106;28;20020;-67
2024/01/04 08:02:19;;;;;;;12.75;1.27;;;;;;;;;;5092490;28;20496;-67
2024/01/04 08:04:45;;;;;;;10.15;1.58;;;;;;;;;;5091469;28;20048;-67
2024/01/04 08:07:10;;;;;;;22.77;2.55;;;;;;;;;;5092447;28;20028;-67
2024/01/04 08:09:35;;;;;;;5.97;1.73;;;;;;;;;;5092131;28;20402;-66
2024/01/04 08:12:01;;;;;;;10.40;1.65;;;;;;;;;;5091923;28;20503;-67
2024/01/04 08:14:26;;;;;;;6.88;1.65;;;;;;;;;;5089586;28;20360;-66
2024/01/04 08:16:52;;;;;;;11.82;1.83;;;;;;;;;;5092331;28;20111;-66
2024/01/04 08:19:17;;;;;;;12.68;1.10;;;;;;;;;;5091154;28;20024;-66
2024/01/04 08:21:43;;;;;;;16.02;1.13;;;;;;;;;;5090528;28;20460;-67
2024/01/04 08:24:09;;;;;;;11.90;1.17;;;;;;;;;;5091841;28;20592;-66
2024/01/04 08:26:40;;;;;;;28.35;1.90;;;;;;;;;;5073577;28;20036;-66
2024/01/04 08:29:05;;;;;;;5.82;0.68;;;;;;;;;;5090422;28;20027;-67
2024/01/04 08:31:32;;;;;;;6.57;0.90;;;;;;;;;;5092196;28;20024;-67
2024/01/04 08:33:58;;;;;;;6.00;1.23;;;;;;;;;;5091770;28;20173;-66
2024/01/04 08:36:23;;;;;;;22.52;1.40;;;;;;;;;;5074502;28;20024;-67
2024/01/04 08:38:49;;;;;;;11.32;1.38;;;;;;;;;;5073315;28;20055;-66
2024/01/04 08:41:14;;;;;;;13.98;1.60;;;;;;;;;;5092087;28;20036;-67
2024/01/04 08:43:39;;;;;;;6.93;1.48;;;;;;;;;;5074736;28;20036;-66
2024/01/04 08:46:05;;;;;;;27.77;4.35;;;;;;;;;;5087882;28;20119;-66
2024/01/04 08:48:30;;;;;;;21.92;4.20;;;;;;;;;;5090680;28;20510;-67
2024/01/04 08:50:56;;;;;;;31.92;3.97;;;;;;;;;;5091052;28;20058;-66
2024/01/04 08:53:21;;;;;;;13.00;4.40;;;;;;;;;;5087967;28;21664;-67
2024/01/04 08:55:48;;;;;;;24.77;4.80;;;;;;;;;;5090931;28;20121;-66
2024/01/04 08:58:14;;;;;;;7.30;3.42;;;;;;;;;;5073356;28;20501;-67
2024/01/04 09:00:39;;;;;;;14.18;3.45;;;;;;;;;;5090101;28;20036;-67
2024/01/04 09:03:05;;;;;;;18.40;2.63;;;;;;;;;;5090505;28;20510;-67
2024/01/04 09:05:30;;;;;;;17.63;3.03;;;;;;;;;;5090239;28;20059;-67
2024/01/04 09:07:55;;;;;;;19.55;2.92;;;;;;;;;;5091213;28;20064;-66
2024/01/04 09:10:21;;;;;;;12.10;2.75;;;;;;;;;;5090675;28;20119;-66
2024/01/04 09:12:47;;;;;;;7.40;2.05;;;;;;;;;;5090899;28;20491;-67
2024/01/04 09:15:12;;;;;;;7.95;1.40;;;;;;;;;;5091393;28;20092;-67
2024/01/04 09:17:38;;;;;;;4.03;1.33;;;;;;;;;;5090994;28;20039;-66
2024/01/04 09:20:03;;;;;;;7.75;2.35;;;;;;;;;;5068716;28;20535;-67
2024/01/04 09:22:29;;;;;;;13.80;1.65;;;;;;;;;;5091329;28;20119;-67
2024/01/04 09:24:55;;;;;;;11.85;1.98;;;;;;;;;;5090063;28;20047;-67
2024/01/04 09:27:22;;;;;;;17.48;1.83;;;;;;;;;;5089639;28;20032;-66
2024/01/04 09:29:47;;;;;;;9.18;1.23;;;;;;;;;;5090820;28;20034;-67
2024/01/04 09:32:13;;;;;;;14.75;1.83;;;;;;;;;;5090415;28;20040;-68
2024/01/04 09:34:38;;;;;;;7.88;2.22;;;;;;;;;;5077288;28;20043;-67
2024/01/04 09:37:04;;;;;;;12.05;1.80;;;;;;;;;;5090493;28;20424;-67
2024/01/04 09:39:29;;;;;;;12.32;1.45;;;;;;;;;;5089646;28;20058;-66
2024/01/04 09:41:56;;;;;;;8.93;1.60;;;;;;;;;;5089871;28;20032;-67
2024/01/04 09:44:28;;;;;;;9.93;1.77;;;;;;;;;;5050112;28;20052;-67
2024/01/04 09:46:56;;;;;;;11.18;2.55;;;;;;;;;;5062368;28;20040;-66
2024/01/04 09:49:21;;;;;;;12.63;2.92;;;;;;;;;;5063499;28;20116;-67
2024/01/04 09:51:47;;;;;;;14.93;2.70;;;;;;;;;;5066058;28;20682;-67
2024/01/04 09:54:12;;;;;;;6.85;2.28;;;;;;;;;;5063506;28;20059;-68
2024/01/04 09:56:42;;;;;;;2.63;0.60;;;;;;;;;;5064983;28;20028;-65
2024/01/04 09:59:08;;;;;;;6.50;1.30;;;;;;;;;;5032209;28;20045;-64
2024/01/04 10:01:35;;;;;;;7.63;1.40;;;;;;;;;;5064010;28;20028;-65
2024/01/04 10:04:11;;;;;;;4.00;1.25;;;;;;;;;;5063893;28;20036;-65
2024/01/04 10:06:39;;;;;;;7.88;1.73;;;;;;;;;;5064744;28;20051;-65
2024/01/04 10:09:17;;;;;;;4.80;1.52;;;;;;;;;;5064071;28;20419;-65
2024/01/04 10:11:57;;;;;;;2.40;1.10;;;;;;;;;;5058116;28;20048;-65
2024/01/04 10:14:27;;;;;;;8.10;1.48;;;;;;;;;;5061690;28;20064;-66
2024/01/04 10:16:53;;;;;;;2.67;1.00;;;;;;;;;;5062376;28;20032;-65
2024/01/04 10:19:19;;;;;;;4.32;1.00;;;;;;;;;;5064229;28;20041;-65
2024/01/04 10:21:44;;;;;;;6.93;1.00;;;;;;;;;;5066236;28;20040;-65
2024/01/04 10:24:13;;;;;;;2.58;1.10;;;;;;;;;;5063671;28;20052;-65
2024/01/04 10:26:39;;;;;;;5.90;1.10;;;;;;;;;;5065288;28;20678;-66
2024/01/04 10:29:06;;;;;;;3.00;1.00;;;;;;;;;;5063581;28;20476;-65
2024/01/04 10:31:32;;;;;;;2.50;1.08;;;;;;;;;;5061697;28;20028;-67
2024/01/04 10:34:00;;;;;;;2.45;1.00;;;;;;;;;;5046465;28;20039;-66
2024/01/04 10:36:30;;;;;;;2.90;0.80;;;;;;;;;;5051958;28;20041;-65
2024/01/04 10:39:07;;;;;;;1.15;0.65;;;;;;;;;;5061299;28;20912;-65
2024/01/04 10:41:33;;;;;;;1.35;0.73;;;;;;;;;;5068697;28;20100;-65
2024/01/04 10:44:07;;;;;;;2.75;1.10;;;;;;;;;;5059890;28;20746;-66
2024/01/04 10:46:36;;;;;;;2.13;0.95;;;;;;;;;;5086969;28;20036;-65
2024/01/04 10:49:03;;;;;;;1.77;0.90;;;;;;;;;;5084815;28;20426;-65
2024/01/04 10:51:32;;;;;;;3.53;0.90;;;;;;;;;;5088542;28;20047;-65
2024/01/04 10:54:00;;;;;;;2.35;1.00;;;;;;;;;;5086221;28;20401;-65
2024/01/04 10:56:27;;;;;;;1.95;0.73;;;;;;;;;;5086289;28;20497;-66
2024/01/04 10:58:53;;;;;;;2.13;0.80;;;;;;;;;;5069016;28;20050;-65
2024/01/04 11:01:18;;;;;;;2.90;1.00;;;;;;;;;;5088880;28;20089;-66
2024/01/04 11:03:47;;;;;;;2.22;1.00;;;;;;;;;;5071050;28;20085;-65
2024/01/04 11:06:13;;;;;;;2.45;1.00;;;;;;;;;;5086996;28;20028;-65
2024/01/04 11:08:39;;;;;;;2.00;0.90;;;;;;;;;;5073656;28;20055;-65
2024/01/04 11:11:05;;;;;;;3.22;1.10;;;;;;;;;;5087077;28;20602;-65
2024/01/04 11:13:31;;;;;;;1.85;1.08;;;;;;;;;;5088366;28;20042;-65
2024/01/04 11:15:58;;;;;;;3.20;1.50;;;;;;;;;;5088974;28;20040;-65
2024/01/04 11:18:33;;;;;;;1.95;1.08;;;;;;;;;;5071254;28;20036;-65
2024/01/04 11:21:17;;;;;;;2.42;1.00;;;;;;;;;;5076359;28;20036;-65
2024/01/04 11:23:58;;;;;;;;;;;;;;;;;;5087035;28;20127;-65
2024/01/04 11:26:25;;;;;;;2.03;1.25;;;;;;;;;;5088273;28;19920;-65
2024/01/04 11:28:50;;;;;;;2.47;1.10;;;;;;;;;;5088392;28;20047;-65
2024/01/04 11:31:16;;;;;;;1.70;1.00;;;;;;;;;;5086989;28;20040;-65
2024/01/04 11:33:41;;;;;;;2.10;1.10;;;;;;;;;;5087845;28;20038;-65
2024/01/04 11:36:08;;;;;;;3.42;1.30;;;;;;;;;;5087598;28;20040;-65
2024/01/04 11:38:34;;;;;;;3.00;1.38;;;;;;;;;;5088464;28;20059;-63
2024/01/04 11:41:01;;;;;;;3.60;1.55;;;;;;;;;;5085920;28;20032;-65
2024/01/04 11:43:39;;;;;;;2.95;1.30;;;;;;;;;;5085206;28;20442;-65
2024/01/04 11:46:23;;;;;;;2.53;1.40;;;;;;;;;;5082432;28;20040;-63
2024/01/04 11:48:54;;;;;;;3.83;1.55;;;;;;;;;;5087411;28;20520;-63
2024/01/04 11:51:38;;;;;;;2.90;1.40;;;;;;;;;;5086476;28;20066;-63
2024/01/04 11:54:04;;;;;;;;;;;;;;;;;;5087699;28;20177;-64
2024/01/04 11:56:30;;;;;;;3.53;1.60;;;;;;;;;;5071248;28;20006;-64
2024/01/04 11:59:08;;;;;;;2.33;1.25;;;;;;;;;;5085819;28;20851;-63
2024/01/04 12:01:43;;;;;;;3.50;1.65;;;;;;;;;;5085567;28;20501;-65
2024/01/04 12:04:11;;;;;;;4.72;1.65;;;;;;;;;;5085176;28;20075;-65
2024/01/04 12:06:39;;;;;;;3.88;1.98;;;;;;;;;;5083510;28;20595;-65
2024/01/04 12:09:09;;;;;;;3.00;1.73;;;;;;;;;;5086796;28;20047;-62
2024/01/04 12:11:39;;;;;;;2.60;1.35;;;;;;;;;;5086962;28;20040;-65
2024/01/04 12:14:06;;;;;;;3.17;1.70;;;;;;;;;;5086593;28;20086;-65
2024/01/04 12:16:32;;;;;;;2.95;1.50;;;;;;;;;;5083571;28;20039;-65
2024/01/04 12:18:58;;;;;;;4.55;1.85;;;;;;;;;;5079902;28;20036;-65
2024/01/04 12:21:26;;;;;;;3.75;1.92;;;;;;;;;;5084252;28;20035;-66
2024/01/04 12:23:52;;;;;;;5.32;1.70;;;;;;;;;;5086332;28;20104;-65
2024/01/04 12:26:19;;;;;;;3.42;1.60;;;;;;;;;;5083692;28;20100;-65
2024/01/04 12:28:45;;;;;;;3.42;1.55;;;;;;;;;;5084530;28;20734;-66
2024/01/04 12:31:11;;;;;;;4.15;1.92;;;;;;;;;;5085166;28;20028;-66
2024/01/04 12:33:36;;;;;;;4.20;2.10;;;;;;;;;;5084473;28;20031;-64
2024/01/04 12:36:02;;;;;;;4.30;1.85;;;;;;;;;;5070302;28;20495;-64
2024/01/04 12:38:28;;;;;;;4.45;2.00;;;;;;;;;;5078509;28;20543;-62
2024/01/04 12:40:53;;;;;;;3.28;1.70;;;;;;;;;;5084676;28;20036;-65
2024/01/04 12:43:20;;;;;;;3.60;1.80;;;;;;;;;;5071726;28;20747;-63
2024/01/04 12:45:46;;;;;;;3.60;2.00;;;;;;;;;;5087143;28;20048;-65
2024/01/04 12:48:12;;;;;;;3.63;2.00;;;;;;;;;;5072090;28;20478;-64
2024/01/04 12:50:38;;;;;;;3.67;1.98;;;;;;;;;;5088578;28;20256;-64
2024/01/04 12:53:05;;;;;;;3.92;1.90;;;;;;;;;;5082010;28;20036;-62
2024/01/04 12:55:33;;;;;;;3.40;1.77;;;;;;;;;;5083882;28;20023;-63
2024/01/04 12:57:58;;;;;;;3.50;1.80;;;;;;;;;;5086282;28;20039;-65
2024/01/04 13:00:24;;;;;;;4.05;2.03;;;;;;;;;;5088801;28;20122;-62
2024/01/04 13:02:49;;;;;;;3.63;1.80;;;;;;;;;;5088678;28;20494;-65
2024/01/04 13:05:14;;;;;;;3.85;2.10;;;;;;;;;;5054167;28;20063;-65
2024/01/04 13:07:40;;;;;;;4.63;2.10;;;;;;;;;;5077395;28;20464;-65
2024/01/04 13:10:10;;;;;;;4.80;2.20;;;;;;;;;;5082588;28;20396;-63
2024/01/04 13:12:36;;;;;;;4.25;2.08;;;;;;;;;;5080403;28;20028;-62
2024/01/04 13:15:01;;;;;;;3.88;2.13;;;;;;;;;;5086440;28;20470;-63
2024/01/04 13:17:30;;;;;;;4.60;2.22;;;;;;;;;;5069600;28;20036;-63
2024/01/04 13:19:59;;;;;;;3.55;1.88;;;;;;;;;;5079608;28;20120;-64
2024/01/04 13:22:26;;;;;;;2.97;1.90;;;;;;;;;;5083997;28;20031;-63
2024/01/04 13:24:51;;;;;;;3.20;1.80;;;;;;;;;;5081730;28;20044;-65
2024/01/04 13:27:17;;;;;;;4.07;2.05;;;;;;;;;;5077820;28;20044;-63
2024/01/04 13:29:42;;;;;;;3.45;1.90;;;;;;;;;;5085013;28;20032;-65
2024/01/04 13:32:08;;;;;;;3.15;1.83;;;;;;;;;;5083064;28;20123;-66
2024/01/04 13:34:34;;;;;;;3.35;2.10;;;;;;;;;;5082614;28;20121;-65
2024/01/04 13:36:59;;;;;;;5.25;2.15;;;;;;;;;;5082061;28;20068;-64
2024/01/04 13:39:27;;;;;;;4.38;2.30;;;;;;;;;;5084186;28;20132;-65
2024/01/04 13:41:52;;;;;;;4.68;2.20;;;;;;;;;;5063585;28;20045;-65
2024/01/04 13:44:18;;;;;;;4.07;2.03;;;;;;;;;;5078381;28;20100;-65
2024/01/04 13:46:43;;;;;;;3.58;1.85;;;;;;;;;;5084942;28;20032;-65
2024/01/04 13:49:09;;;;;;;3.60;1.98;;;;;;;;;;5072972;28;20051;-62
2024/01/04 13:51:34;;;;;;;3.47;2.10;;;;;;;;;;5077381;28;20488;-62
2024/01/04 13:53:59;;;;;;;5.00;2.88;;;;;;;;;;5059793;28;20148;-62
2024/01/04 13:56:25;;;;;;;4.45;2.20;;;;;;;;;;5066954;28;20521;-62
2024/01/04 13:58:51;;;;;;;3.85;2.10;;;;;;;;;;5083885;28;20031;-64
2024/01/04 14:01:16;;;;;;;4.13;1.88;;;;;;;;;;5066905;28;20039;-62
2024/01/04 14:03:42;;;;;;;3.25;2.20;;;;;;;;;;5066451;28;20066;-65
2024/01/04 14:06:08;;;;;;;3.47;2.05;;;;;;;;;;5084388;28;20475;-65
2024/01/04 14:08:35;;;;;;;4.03;2.40;;;;;;;;;;5076372;28;20356;-65
2024/01/04 14:11:00;;;;;;;3.88;2.38;;;;;;;;;;5085311;28;20043;-65
2024/01/04 14:13:26;;;;;;;4.57;2.25;;;;;;;;;;5084924;28;20035;-63
2024/01/04 14:15:51;;;;;;;4.78;2.50;;;;;;;;;;5077298;28;20041;-65
2024/01/04 14:18:16;;;;;;;3.97;2.00;;;;;;;;;;5085254;28;20040;-65
2024/01/04 14:20:42;;;;;;;3.47;2.15;;;;;;;;;;5085014;28;20037;-66
2024/01/04 14:23:08;;;;;;;3.72;2.15;;;;;;;;;;5053784;28;20028;-64
2024/01/04 14:25:34;;;;;;;4.55;2.10;;;;;;;;;;5079520;28;20703;-64
2024/01/04 14:27:59;;;;;;;4.13;2.10;;;;;;;;;;5077862;28;20059;-65
2024/01/04 14:30:25;;;;;;;5.18;2.40;;;;;;;;;;5084466;28;20117;-63
2024/01/04 14:32:51;;;;;;;3.25;1.67;;;;;;;;;;5081299;28;20043;-63